This is the latest recevied weather packets stored in our database for station/object KY4LEX. If no packets are shown the sender has not sent any weather packets the latest 10 day(s).
| Time | Temp. | Humidity | Pressure | Rain* | Wind** | Luminosity | Snow |
|---|---|---|---|---|---|---|---|
| 1777777272 | 5° C | 84% | 1024.1 hPa | 0 mm | - | 0 W/m² | - |
| 1777776969 | 5° C | 84% | 1024.2 hPa | 0 mm | - | 0 W/m² | - |
| 1777776667 | 5.56° C | 83% | 1023.9 hPa | 0 mm | - | 0 W/m² | - |
| 1777776363 | 5.56° C | 82% | 1024 hPa | 0 mm | - | 0 W/m² | - |
| 1777776060 | 5.56° C | 82% | 1023.6 hPa | 0 mm | - | 0 W/m² | - |
| 1777775757 | 5.56° C | 82% | 1023.9 hPa | 0 mm | - | 0 W/m² | - |
| 1777775454 | 6.11° C | 81% | 1023.8 hPa | 0 mm | - | 0 W/m² | - |
| 1777775150 | 6.11° C | 79% | 1023.6 hPa | 0 mm | - | 0 W/m² | - |
| 1777774844 | 6.11° C | 79% | 1023.6 hPa | 0 mm | - | 0 W/m² | - |
| 1777774542 | 6.67° C | 79% | 1023.5 hPa | 0 mm | - | 0 W/m² | - |
| 1777774239 | 6.67° C | 77% | 1023.4 hPa | 0 mm | - | 0 W/m² | - |
| 1777773936 | 6.67° C | 76% | 1023.1 hPa | 0 mm | - | 0 W/m² | - |
| 1777773633 | 6.67° C | 74% | 1023.3 hPa | 0 mm | - | 0 W/m² | - |
| 1777773329 | 7.22° C | 73% | 1023.4 hPa | 0 mm | - | 0 W/m² | - |
| 1777773027 | 7.22° C | 71% | 1023.4 hPa | 0 mm | - | 0 W/m² | - |
| 1777772722 | 7.78° C | 70% | 1023.2 hPa | 0 mm | - | 0 W/m² | - |
| 1777771513 | 8.33° C | 65% | 1022.9 hPa | 0 mm | - | 0 W/m² | - |
| 1777771209 | 8.89° C | 64% | 1022.8 hPa | 0 mm | - | 0 W/m² | - |
| 1777767572 | 10.56° C | 51% | 1022.3 hPa | 0 mm | - | 5 W/m² | - |
| 1777766663 | 10.56° C | 54% | 1022.3 hPa | 0 mm | - | 10 W/m² | - |
| 1777766360 | 10.56° C | 49% | 1022.2 hPa | 0 mm | - | 13 W/m² | - |
| 1777764541 | 11.67° C | 47% | 1021.7 hPa | 0 mm | - | 41 W/m² | - |
| 1777763934 | 11.67° C | 48% | 1021.8 hPa | 0 mm | - | 46 W/m² | - |
| 1777761813 | 12.22° C | 49% | 1022 hPa | 0 mm | - | 88 W/m² | - |
| 1777761209 | 12.78° C | 46% | 1022.1 hPa | 0 mm | - | 150 W/m² | - |
* Rain latest hour (hover to see other rain measurements)
** Current wind speed in m/s (hover to see current wind gust speed)